Time;durP1;ratioP1;P1;durP2;ratioP2;P2;SDS_P1;SDS_P2;PMS_P1;PMS_P2;Temp;Humidity;BMP_temperature;BMP_pressure;BME280_temperature;BME280_humidity;BME280_pressure;Samples;Min_cycle;Max_cycle;Signal;HPM_P1;HPM_P2
2023/03/18 00:00:17;;;;;;;12.40;8.53;;;9.50;99.90;;;;;;4979943;28;20456;-71
2023/03/18 00:03:03;;;;;;;13.10;9.37;;;9.50;99.90;;;;;;4980190;28;20509;-71
2023/03/18 00:05:50;;;;;;;14.17;8.90;;;9.50;99.90;;;;;;4988122;28;20449;-71
2023/03/18 00:08:36;;;;;;;14.77;9.77;;;9.50;99.90;;;;;;4980892;28;20860;-73
2023/03/18 00:11:23;;;;;;;15.30;9.23;;;9.50;99.90;;;;;;4987132;28;20457;-73
2023/03/18 00:14:10;;;;;;;16.07;8.97;;;9.50;99.90;;;;;;4982377;28;20544;-73
2023/03/18 00:16:56;;;;;;;17.13;8.70;;;9.50;99.90;;;;;;4981236;28;20484;-73
2023/03/18 00:19:41;;;;;;;13.33;8.97;;;9.60;99.90;;;;;;4984484;28;20483;-73
2023/03/18 00:22:28;;;;;;;9.80;7.70;;;9.60;99.90;;;;;;4985625;28;20505;-73
2023/03/18 00:25:15;;;;;;;15.27;9.23;;;9.60;99.90;;;;;;4987981;28;21033;-73
2023/03/18 00:28:00;;;;;;;25.50;8.00;;;9.60;99.90;;;;;;4980365;28;20616;-73
2023/03/18 00:30:46;;;;;;;11.27;6.97;;;9.70;99.90;;;;;;4986082;28;20511;-72
2023/03/18 00:33:32;;;;;;;9.83;6.50;;;9.50;99.90;;;;;;4985873;28;20457;-71
2023/03/18 00:36:24;;;;;;;15.30;9.13;;;9.50;99.90;;;;;;4981107;28;20443;-73
2023/03/18 00:39:12;;;;;;;15.73;8.93;;;9.50;99.90;;;;;;4985986;28;20840;-72
2023/03/18 00:41:58;;;;;;;9.87;7.27;;;9.50;99.90;;;;;;4997441;28;20411;-73
2023/03/18 00:44:44;;;;;;;14.00;8.97;;;9.50;99.90;;;;;;5001679;28;20506;-73
2023/03/18 00:47:29;;;;;;;14.50;8.00;;;9.60;99.90;;;;;;5001305;28;20500;-73
2023/03/18 00:50:15;;;;;;;12.77;8.47;;;9.50;99.90;;;;;;4989403;28;21037;-73
2023/03/18 00:53:01;;;;;;;12.97;7.70;;;9.60;99.90;;;;;;4986593;28;20565;-73
2023/03/18 00:55:48;;;;;;;24.97;7.67;;;9.70;99.90;;;;;;4983136;28;20440;-73
2023/03/18 00:58:35;;;;;;;12.70;8.43;;;9.70;99.90;;;;;;4988178;28;20551;-73
2023/03/18 01:01:22;;;;;;;9.53;7.97;;;9.70;99.90;;;;;;4985828;28;20558;-73
2023/03/18 01:04:08;;;;;;;11.10;7.53;;;9.70;99.90;;;;;;4989250;28;20656;-73
2023/03/18 01:06:54;;;;;;;11.60;7.87;;;9.70;99.90;;;;;;4985263;28;20471;-73
2023/03/18 01:09:40;;;;;;;21.60;8.20;;;9.70;99.90;;;;;;4992038;28;20427;-74
2023/03/18 01:12:27;;;;;;;11.73;9.23;;;9.80;99.90;;;;;;4982132;28;20967;-73
2023/03/18 01:15:14;;;;;;;10.00;7.47;;;9.80;99.90;;;;;;4987143;28;20940;-73
2023/03/18 01:18:00;;;;;;;12.93;7.80;;;9.80;99.90;;;;;;4981302;28;20472;-71
2023/03/18 01:20:46;;;;;;;26.73;7.60;;;9.90;99.90;;;;;;4981268;28;20523;-73
2023/03/18 01:23:31;;;;;;;9.83;8.10;;;9.80;99.90;;;;;;4984612;28;20422;-73
2023/03/18 01:26:17;;;;;;;11.60;7.80;;;9.90;99.90;;;;;;4987341;28;20457;-72
2023/03/18 01:29:04;;;;;;;12.80;8.17;;;9.80;99.90;;;;;;4991720;28;20932;-73
2023/03/18 01:31:50;;;;;;;16.20;8.10;;;9.80;99.90;;;;;;4992944;28;20597;-73
2023/03/18 01:34:36;;;;;;;16.83;8.50;;;9.90;99.90;;;;;;4978722;28;20520;-73
2023/03/18 01:37:22;;;;;;;11.63;7.37;;;9.90;99.90;;;;;;4986607;28;20476;-72
2023/03/18 01:40:10;;;;;;;10.73;7.47;;;9.90;99.90;;;;;;4982260;28;20525;-73
2023/03/18 01:42:57;;;;;;;9.03;6.93;;;9.90;99.90;;;;;;4988703;28;20454;-71
2023/03/18 01:45:48;;;;;;;16.63;8.90;;;9.90;99.90;;;;;;4991921;28;20427;-73
2023/03/18 01:48:39;;;;;;;11.67;8.00;;;9.90;99.90;;;;;;4971968;28;20560;-73
2023/03/18 01:51:28;;;;;;;18.30;9.03;;;9.90;99.90;;;;;;4980117;28;20598;-73
2023/03/18 01:54:15;;;;;;;11.40;7.17;;;9.90;99.90;;;;;;4981496;28;20797;-73
2023/03/18 01:57:01;;;;;;;14.63;8.40;;;9.90;99.90;;;;;;4990383;28;20525;-73
2023/03/18 01:59:50;;;;;;;15.67;7.50;;;9.90;99.90;;;;;;4986188;28;20572;-73
2023/03/18 02:02:39;;;;;;;12.77;8.17;;;9.90;99.90;;;;;;4985309;28;20448;-73
2023/03/18 02:05:27;;;;;;;11.57;7.57;;;9.80;99.90;;;;;;4990507;28;20434;-73
2023/03/18 02:08:12;;;;;;;12.63;7.70;;;9.80;99.90;;;;;;4977189;28;20615;-74
2023/03/18 02:10:59;;;;;;;11.17;7.70;;;9.90;99.90;;;;;;4983212;28;20508;-73
2023/03/18 02:13:47;;;;;;;13.23;7.87;;;9.90;99.90;;;;;;4985404;28;20474;-73
2023/03/18 02:16:42;;;;;;;12.40;7.80;;;9.90;99.90;;;;;;4990601;28;20424;-73
2023/03/18 02:19:45;;;;;;;10.70;7.90;;;9.90;99.90;;;;;;4988214;28;20551;-73
2023/03/18 02:22:34;;;;;;;13.80;7.47;;;9.90;99.90;;;;;;4993762;28;20457;-73
2023/03/18 02:25:31;;;;;;;13.00;8.40;;;9.90;99.90;;;;;;4993749;28;20423;-74
2023/03/18 02:28:22;;;;;;;11.00;8.07;;;9.90;99.90;;;;;;4982232;28;20537;-71
2023/03/18 02:31:12;;;;;;;9.40;7.23;;;9.80;99.90;;;;;;4981460;28;20445;-73
2023/03/18 02:33:59;;;;;;;15.37;9.10;;;9.70;99.90;;;;;;4986117;28;21007;-73
2023/03/18 02:36:45;;;;;;;15.77;9.20;;;9.70;99.90;;;;;;4988945;28;20548;-73
2023/03/18 02:39:30;;;;;;;11.73;9.00;;;9.70;99.90;;;;;;4977390;28;20566;-73
2023/03/18 02:42:27;;;;;;;15.77;9.63;;;9.70;99.90;;;;;;4984179;28;20967;-73
2023/03/18 02:45:30;;;;;;;12.97;8.97;;;9.80;99.90;;;;;;4983152;28;20532;-72
2023/03/18 02:48:18;;;;;;;14.87;8.90;;;9.80;99.90;;;;;;4980158;28;21062;-73
2023/03/18 02:51:05;;;;;;;13.13;8.53;;;9.80;99.90;;;;;;4991103;28;20448;-73
2023/03/18 02:53:52;;;;;;;15.17;8.40;;;9.90;99.90;;;;;;4989865;28;20448;-72
2023/03/18 02:56:38;;;;;;;17.13;8.20;;;9.90;99.90;;;;;;4986268;28;20536;-73
2023/03/18 02:59:24;;;;;;;15.93;6.90;;;9.90;99.90;;;;;;4986126;28;20453;-73
2023/03/18 03:02:11;;;;;;;9.93;7.77;;;10.00;99.90;;;;;;4987203;28;20469;-73
2023/03/18 03:04:56;;;;;;;13.07;7.83;;;10.00;99.90;;;;;;4992158;28;20450;-73
2023/03/18 03:07:42;;;;;;;12.07;8.30;;;10.00;99.90;;;;;;4982847;28;20493;-70
2023/03/18 03:10:28;;;;;;;16.83;8.87;;;10.10;99.90;;;;;;4994629;28;20840;-73
2023/03/18 03:13:14;;;;;;;19.63;12.00;;;10.00;99.90;;;;;;4991773;28;20504;-72
2023/03/18 03:16:00;;;;;;;19.60;12.47;;;9.90;99.90;;;;;;4984904;28;20455;-73
2023/03/18 03:18:48;;;;;;;18.50;11.57;;;10.00;99.90;;;;;;4987658;28;20475;-73
2023/03/18 03:21:35;;;;;;;16.20;11.40;;;10.00;99.90;;;;;;4991506;28;21010;-72
2023/03/18 03:24:21;;;;;;;18.13;9.60;;;10.00;99.90;;;;;;4987745;28;20502;-74
2023/03/18 03:27:06;;;;;;;15.20;10.17;;;10.10;99.90;;;;;;4992394;28;20597;-72
2023/03/18 03:29:52;;;;;;;21.27;9.87;;;10.10;99.90;;;;;;4989312;28;20540;-72
2023/03/18 03:32:38;;;;;;;10.03;8.57;;;10.00;99.90;;;;;;4994547;28;20470;-73
2023/03/18 03:35:25;;;;;;;11.73;8.63;;;10.10;99.90;;;;;;4986258;28;20430;-73
2023/03/18 03:38:11;;;;;;;13.20;8.70;;;10.00;99.90;;;;;;4979204;28;20477;-73
2023/03/18 03:40:57;;;;;;;12.37;7.57;;;10.10;99.90;;;;;;4993987;28;20480;-73
2023/03/18 03:43:43;;;;;;;10.47;7.90;;;10.10;99.90;;;;;;4990548;28;20570;-73
2023/03/18 03:46:28;;;;;;;16.50;8.60;;;10.10;99.90;;;;;;4981718;28;20472;-73
2023/03/18 03:49:15;;;;;;;13.30;8.20;;;10.10;99.90;;;;;;4988187;28;20427;-73
2023/03/18 03:52:01;;;;;;;9.67;7.40;;;10.10;99.90;;;;;;4989144;28;20580;-72
2023/03/18 03:54:47;;;;;;;10.80;8.47;;;10.10;99.90;;;;;;4996941;28;20456;-72
2023/03/18 03:57:32;;;;;;;18.20;8.60;;;10.00;99.90;;;;;;4988156;28;20664;-72
2023/03/18 04:00:21;;;;;;;11.97;7.57;;;10.00;99.90;;;;;;4985221;28;20528;-73
2023/03/18 04:03:06;;;;;;;11.93;8.20;;;10.00;99.90;;;;;;4992258;28;20806;-73
2023/03/18 04:05:52;;;;;;;13.93;9.37;;;10.00;99.90;;;;;;4978202;28;20446;-73
2023/03/18 04:08:40;;;;;;;12.93;7.60;;;10.10;99.90;;;;;;4985494;28;20518;-73
2023/03/18 04:11:25;;;;;;;11.30;9.00;;;10.10;99.90;;;;;;4993834;28;20424;-73
2023/03/18 04:14:11;;;;;;;12.20;9.20;;;10.10;99.90;;;;;;4992979;28;20512;-73
2023/03/18 04:16:57;;;;;;;15.90;8.53;;;9.90;99.90;;;;;;4990657;28;20476;-71
2023/03/18 04:19:42;;;;;;;12.90;8.70;;;9.90;99.90;;;;;;4992506;28;20449;-74
2023/03/18 04:22:28;;;;;;;11.47;8.87;;;10.00;99.90;;;;;;4995444;28;20479;-73
2023/03/18 04:25:15;;;;;;;13.93;8.37;;;10.00;99.90;;;;;;4999831;28;20546;-72
2023/03/18 04:28:01;;;;;;;11.80;8.30;;;10.00;99.90;;;;;;4983294;28;20451;-73
2023/03/18 04:30:48;;;;;;;16.37;8.93;;;10.00;99.90;;;;;;4991620;28;20491;-73
2023/03/18 04:33:34;;;;;;;9.43;7.50;;;10.00;99.90;;;;;;4991386;28;20995;-73
2023/03/18 04:36:19;;;;;;;11.87;7.63;;;9.90;99.90;;;;;;4992172;28;20420;-73
2023/03/18 04:39:05;;;;;;;18.83;7.83;;;9.90;99.90;;;;;;4982701;28;20449;-73
2023/03/18 04:41:53;;;;;;;10.57;7.67;;;10.00;99.90;;;;;;4991071;28;20490;-73
2023/03/18 04:44:39;;;;;;;11.00;7.33;;;9.90;99.90;;;;;;4990290;28;20799;-73
2023/03/18 04:47:24;;;;;;;13.67;8.60;;;10.00;99.90;;;;;;4983233;28;20460;-73
2023/03/18 04:50:12;;;;;;;14.13;7.50;;;10.00;99.90;;;;;;4984808;28;20441;-73
2023/03/18 04:52:57;;;;;;;12.37;7.90;;;10.00;99.90;;;;;;4995780;28;20554;-73
2023/03/18 04:55:43;;;;;;;15.67;8.30;;;10.00;99.90;;;;;;4988110;28;20419;-72
2023/03/18 04:58:31;;;;;;;12.27;7.80;;;10.00;99.90;;;;;;4986722;28;20447;-73
2023/03/18 05:01:17;;;;;;;11.43;7.60;;;10.00;99.90;;;;;;4990037;28;20492;-74
2023/03/18 05:04:03;;;;;;;17.50;7.73;;;10.00;99.90;;;;;;4984061;28;20531;-73
2023/03/18 05:06:49;;;;;;;13.70;6.60;;;10.00;99.90;;;;;;4986034;28;20940;-73
2023/03/18 05:09:34;;;;;;;12.33;6.97;;;9.90;99.90;;;;;;4989395;28;20573;-74
2023/03/18 05:12:20;;;;;;;9.50;6.17;;;9.90;99.90;;;;;;4991650;28;20441;-73
2023/03/18 05:15:08;;;;;;;14.40;5.97;;;9.90;99.90;;;;;;4995904;28;20490;-73
2023/03/18 05:17:54;;;;;;;15.23;5.30;;;9.90;99.90;;;;;;4986328;28;20490;-73
2023/03/18 05:20:39;;;;;;;15.83;5.53;;;9.90;99.90;;;;;;4984340;28;20462;-72
2023/03/18 05:23:25;;;;;;;9.57;6.33;;;9.90;99.90;;;;;;4982712;28;20912;-72
2023/03/18 05:26:11;;;;;;;15.93;6.13;;;9.90;99.90;;;;;;4983789;28;20433;-72
2023/03/18 05:28:57;;;;;;;10.37;4.60;;;9.80;99.90;;;;;;4986383;28;20451;-73
2023/03/18 05:31:44;;;;;;;7.77;4.87;;;9.70;99.90;;;;;;4988454;28;21082;-74
2023/03/18 05:34:30;;;;;;;10.37;4.27;;;9.60;99.90;;;;;;4988676;28;20423;-72
2023/03/18 05:37:16;;;;;;;6.83;4.47;;;9.60;99.90;;;;;;4989974;28;20552;-73
2023/03/18 05:40:02;;;;;;;6.23;4.10;;;9.60;99.90;;;;;;4992729;28;20518;-74
2023/03/18 05:42:48;;;;;;;5.63;3.60;;;9.60;99.90;;;;;;4987659;28;20512;-73
2023/03/18 05:45:34;;;;;;;6.10;3.63;;;9.60;99.90;;;;;;4987057;28;20444;-73
2023/03/18 05:48:21;;;;;;;9.70;4.37;;;9.50;99.90;;;;;;4994863;28;20563;-73
2023/03/18 05:51:06;;;;;;;6.93;4.03;;;9.60;99.90;;;;;;4990144;28;20446;-72
2023/03/18 05:53:52;;;;;;;7.00;4.10;;;9.60;99.90;;;;;;4987412;28;20469;-73
2023/03/18 05:56:38;;;;;;;8.33;4.80;;;9.60;99.90;;;;;;4980696;28;20421;-73
2023/03/18 05:59:24;;;;;;;6.70;4.00;;;9.60;99.90;;;;;;4992710;28;20515;-73
2023/03/18 06:02:10;;;;;;;8.33;4.30;;;9.60;99.90;;;;;;4990093;28;20479;-73
2023/03/18 06:04:57;;;;;;;7.97;3.63;;;9.60;99.90;;;;;;4986966;28;20424;-73
2023/03/18 06:07:44;;;;;;;16.33;3.73;;;9.60;99.90;;;;;;4986798;28;20531;-72
2023/03/18 06:10:29;;;;;;;13.47;4.00;;;9.60;99.90;;;;;;4993188;28;20438;-73
2023/03/18 06:13:15;;;;;;;4.73;3.80;;;9.70;99.90;;;;;;4991873;28;20502;-72
2023/03/18 06:16:02;;;;;;;10.00;4.23;;;9.70;99.90;;;;;;4979696;28;20467;-72
2023/03/18 06:18:48;;;;;;;5.70;3.63;;;9.70;99.90;;;;;;4986803;28;20624;-74
2023/03/18 06:21:36;;;;;;;7.27;3.60;;;9.80;99.90;;;;;;4987735;28;20468;-73
2023/03/18 06:24:21;;;;;;;4.40;3.57;;;9.80;99.90;;;;;;4993199;28;20446;-73
2023/03/18 06:27:07;;;;;;;7.43;4.30;;;9.90;99.90;;;;;;4990325;28;20472;-72
2023/03/18 06:29:53;;;;;;;12.20;4.70;;;9.90;99.90;;;;;;4994792;28;20808;-72
2023/03/18 06:32:40;;;;;;;10.00;4.47;;;9.90;99.90;;;;;;4990435;28;20539;-74
2023/03/18 06:35:27;;;;;;;12.67;3.93;;;10.00;99.90;;;;;;4987193;28;20448;-73
2023/03/18 06:38:15;;;;;;;7.53;4.10;;;9.90;99.90;;;;;;4990535;28;20535;-73
2023/03/18 06:41:01;;;;;;;6.00;4.17;;;9.90;99.90;;;;;;4990914;28;20825;-72
2023/03/18 06:43:49;;;;;;;11.60;5.20;;;10.00;99.90;;;;;;4986905;28;20921;-74
2023/03/18 06:46:35;;;;;;;12.13;6.13;;;10.10;99.90;;;;;;4979917;28;21252;-74
2023/03/18 06:49:20;;;;;;;10.70;6.50;;;10.20;99.90;;;;;;4983984;28;21166;-71
2023/03/18 06:52:06;;;;;;;9.83;6.57;;;10.20;99.90;;;;;;4987598;28;20528;-72
2023/03/18 06:54:53;;;;;;;15.00;10.17;;;10.20;99.90;;;;;;4990911;28;20446;-72
2023/03/18 06:57:40;;;;;;;12.07;7.63;;;10.30;99.90;;;;;;4995218;28;20476;-73
2023/03/18 07:00:26;;;;;;;15.43;8.73;;;10.40;99.90;;;;;;4988325;28;21040;-73
2023/03/18 07:03:14;;;;;;;15.40;9.10;;;10.40;99.90;;;;;;4983282;28;20882;-73
2023/03/18 07:06:00;;;;;;;14.27;9.73;;;10.40;99.90;;;;;;4981066;28;20453;-71
2023/03/18 07:08:46;;;;;;;11.50;8.57;;;10.40;99.90;;;;;;4989088;28;20881;-72
2023/03/18 07:11:33;;;;;;;10.40;7.10;;;10.40;99.90;;;;;;4992184;28;21018;-73
2023/03/18 07:14:18;;;;;;;9.87;6.67;;;10.50;99.90;;;;;;4989646;28;20435;-72
2023/03/18 07:17:04;;;;;;;8.93;6.73;;;10.50;99.90;;;;;;4985941;28;20467;-73
2023/03/18 07:19:50;;;;;;;11.40;6.30;;;10.50;99.90;;;;;;4991959;28;20424;-72
2023/03/18 07:22:36;;;;;;;10.10;7.40;;;10.50;99.90;;;;;;4993745;28;20476;-73
2023/03/18 07:25:22;;;;;;;13.00;7.90;;;10.60;99.90;;;;;;4984512;28;20464;-73
2023/03/18 07:28:09;;;;;;;14.70;6.93;;;10.70;99.90;;;;;;4997694;28;20472;-71
2023/03/18 07:30:54;;;;;;;11.97;7.70;;;10.80;99.90;;;;;;4989437;28;20423;-73
2023/03/18 07:33:40;;;;;;;10.63;8.10;;;10.90;99.90;;;;;;4995826;28;20491;-73
2023/03/18 07:36:26;;;;;;;11.30;7.80;;;11.00;99.90;;;;;;4989900;28;20431;-72
2023/03/18 07:39:12;;;;;;;11.57;7.50;;;11.00;99.90;;;;;;4984853;28;20455;-72
2023/03/18 07:41:58;;;;;;;15.80;8.10;;;11.20;99.90;;;;;;4984443;28;20490;-73
2023/03/18 07:44:45;;;;;;;10.80;8.50;;;11.30;99.90;;;;;;4984127;28;20539;-73
2023/03/18 07:47:31;;;;;;;14.23;8.30;;;11.40;99.90;;;;;;4990363;28;20912;-73
2023/03/18 07:50:17;;;;;;;13.93;7.40;;;11.60;99.90;;;;;;4994266;28;20452;-73
2023/03/18 07:53:03;;;;;;;12.50;9.00;;;11.70;99.90;;;;;;4992099;28;20460;-73
2023/03/18 07:55:49;;;;;;;11.00;7.80;;;11.80;99.90;;;;;;4984584;28;20473;-73
2023/03/18 07:58:34;;;;;;;11.80;8.27;;;11.90;99.90;;;;;;4990985;28;20492;-73
2023/03/18 08:01:21;;;;;;;14.40;8.63;;;12.00;99.90;;;;;;4982332;28;20430;-73
2023/03/18 08:04:07;;;;;;;19.33;9.20;;;12.20;99.90;;;;;;4985596;28;20444;-73
2023/03/18 08:06:54;;;;;;;8.33;6.50;;;12.30;99.90;;;;;;4990284;28;20489;-72
2023/03/18 08:09:39;;;;;;;9.47;5.90;;;12.50;99.90;;;;;;4988318;28;20428;-73
2023/03/18 08:12:25;;;;;;;6.10;3.53;;;12.60;99.90;;;;;;4988193;28;20429;-73
2023/03/18 08:15:12;;;;;;;3.87;2.53;;;12.80;99.90;;;;;;4990552;28;20817;-73
2023/03/18 08:17:59;;;;;;;7.03;2.27;;;12.90;84.30;;;;;;4989339;28;20478;-73
2023/03/18 08:20:45;;;;;;;4.70;2.93;;;13.10;82.50;;;;;;4991838;28;20429;-73
2023/03/18 08:23:31;;;;;;;4.40;2.40;;;13.30;76.50;;;;;;4986657;28;20456;-73
2023/03/18 08:26:16;;;;;;;4.20;2.47;;;13.40;74.80;;;;;;4981186;28;20798;-73
2023/03/18 08:29:02;;;;;;;4.57;2.23;;;13.60;61.80;;;;;;4984251;28;20450;-74
2023/03/18 08:31:48;;;;;;;4.10;2.03;;;13.60;61.60;;;;;;4989535;28;20568;-73
2023/03/18 08:34:35;;;;;;;3.60;1.77;;;13.70;63.10;;;;;;4994634;28;20434;-74
2023/03/18 08:37:21;;;;;;;4.50;2.10;;;13.70;57.90;;;;;;4983486;28;20677;-74
2023/03/18 08:40:08;;;;;;;5.63;1.60;;;13.70;59.30;;;;;;4995205;28;20429;-74
2023/03/18 08:42:54;;;;;;;3.40;1.50;;;13.70;53.90;;;;;;5003379;28;20475;-72
2023/03/18 08:45:40;;;;;;;4.83;1.60;;;13.80;55.90;;;;;;4996821;28;20403;-71
2023/03/18 08:48:26;;;;;;;3.13;1.33;;;14.00;54.60;;;;;;4992706;28;20457;-73
2023/03/18 08:51:13;;;;;;;6.57;1.90;;;14.10;50.40;;;;;;4998189;28;20452;-73
2023/03/18 08:53:59;;;;;;;5.93;2.40;;;14.30;47.60;;;;;;4990762;28;20445;-73
2023/03/18 08:56:45;;;;;;;5.90;1.73;;;14.40;45.30;;;;;;4988433;28;20445;-73
2023/03/18 08:59:30;;;;;;;6.40;1.83;;;14.60;41.90;;;;;;4986996;28;20452;-72
2023/03/18 09:02:17;;;;;;;2.13;1.20;;;14.70;40.70;;;;;;4980736;28;21132;-73
2023/03/18 09:05:02;;;;;;;5.47;2.47;;;14.80;39.80;;;;;;4984674;28;20543;-72
2023/03/18 09:07:49;;;;;;;3.87;2.27;;;14.90;37.70;;;;;;4991714;28;20603;-72
2023/03/18 09:10:35;;;;;;;4.43;1.70;;;15.00;39.10;;;;;;4998216;28;20432;-73
2023/03/18 09:13:21;;;;;;;5.93;2.10;;;15.10;39.90;;;;;;4987335;28;21033;-71
2023/03/18 09:16:07;;;;;;;7.77;2.20;;;15.10;40.10;;;;;;4988580;28;20423;-72
2023/03/18 09:18:53;;;;;;;4.23;1.77;;;15.10;40.40;;;;;;4984124;28;21010;-72
2023/03/18 09:21:38;;;;;;;4.40;1.80;;;15.10;41.30;;;;;;4981369;28;20430;-73
2023/03/18 09:24:26;;;;;;;3.57;2.27;;;15.10;39.10;;;;;;4982657;28;20522;-73
2023/03/18 09:27:11;;;;;;;5.60;2.43;;;15.10;37.80;;;;;;4982203;28;21118;-73
2023/03/18 09:29:58;;;;;;;3.80;1.90;;;15.10;36.20;;;;;;4972830;28;21122;-72
2023/03/18 09:32:44;;;;;;;7.70;2.50;;;15.20;36.90;;;;;;4996485;28;20481;-74
2023/03/18 09:35:30;;;;;;;5.37;1.90;;;15.30;36.60;;;;;;4979725;28;20900;-73
2023/03/18 09:38:18;;;;;;;5.33;1.87;;;15.40;33.80;;;;;;4988482;28;20473;-74
2023/03/18 09:41:17;;;;;;;3.97;1.63;;;15.50;32.30;;;;;;4984634;28;20485;-72
2023/03/18 09:44:12;;;;;;;3.27;1.40;;;15.70;32.40;;;;;;4983444;28;20452;-73
2023/03/18 09:47:11;;;;;;;5.40;1.50;;;15.80;33.90;;;;;;4986631;28;20561;-73
2023/03/18 09:50:09;;;;;;;4.43;2.00;;;15.90;33.30;;;;;;4982900;28;20444;-74
2023/03/18 09:53:05;;;;;;;4.37;2.17;;;16.00;32.80;;;;;;4977283;28;20498;-73
2023/03/18 09:55:55;;;;;;;5.83;1.83;;;16.10;32.50;;;;;;4980397;28;20468;-73
2023/03/18 09:58:47;;;;;;;5.50;2.10;;;16.10;32.70;;;;;;4991830;28;20491;-73
2023/03/18 10:01:37;;;;;;;4.33;1.67;;;16.20;33.10;;;;;;4992105;28;20411;-73
2023/03/18 10:04:26;;;;;;;3.10;1.50;;;16.30;31.10;;;;;;4981570;28;20513;-72
2023/03/18 10:07:17;;;;;;;5.27;2.10;;;16.40;33.90;;;;;;4980754;28;20489;-73
2023/03/18 10:10:08;;;;;;;3.60;1.77;;;16.50;35.80;;;;;;4987843;28;20836;-73
2023/03/18 10:13:04;;;;;;;8.20;1.60;;;16.50;35.30;;;;;;4982682;28;20913;-73
2023/03/18 10:15:55;;;;;;;4.70;2.20;;;16.50;34.90;;;;;;4977909;28;20427;-73
2023/03/18 10:18:43;;;;;;;8.30;2.80;;;16.60;33.90;;;;;;4988701;28;20822;-73
2023/03/18 10:21:38;;;;;;;8.90;3.07;;;16.60;32.60;;;;;;4985812;28;20527;-72
2023/03/18 10:24:32;;;;;;;5.00;2.17;;;16.60;32.60;;;;;;4984530;28;21025;-73
2023/03/18 10:27:24;;;;;;;6.20;2.30;;;16.60;32.40;;;;;;4988413;28;20475;-73
2023/03/18 10:30:27;;;;;;;3.93;2.00;;;16.60;36.40;;;;;;4980819;28;20912;-72
2023/03/18 10:33:20;;;;;;;4.83;2.10;;;16.70;32.20;;;;;;4986947;28;20511;-73
2023/03/18 10:36:12;;;;;;;2.70;1.50;;;16.90;32.10;;;;;;4995205;28;20497;-74
2023/03/18 10:39:00;;;;;;;4.20;1.90;;;17.10;33.30;;;;;;4974855;28;20424;-73
2023/03/18 10:41:49;;;;;;;2.60;1.60;;;17.10;31.70;;;;;;4969783;28;20458;-73
2023/03/18 10:44:38;;;;;;;5.20;1.87;;;17.10;31.70;;;;;;4980069;28;20747;-74
2023/03/18 10:47:29;;;;;;;4.70;2.13;;;17.10;33.80;;;;;;4973570;28;20490;-74
2023/03/18 10:50:22;;;;;;;6.73;2.03;;;17.10;33.60;;;;;;4987059;28;20486;-74
2023/03/18 10:53:17;;;;;;;5.30;1.90;;;17.10;33.30;;;;;;4980737;28;20981;-74
2023/03/18 10:56:06;;;;;;;5.40;1.80;;;17.20;34.30;;;;;;4981834;28;20508;-74
2023/03/18 10:58:52;;;;;;;3.60;2.10;;;17.30;34.80;;;;;;4982737;28;20452;-73
2023/03/18 11:01:39;;;;;;;3.23;1.70;;;17.50;31.20;;;;;;4986210;28;20545;-74
2023/03/18 11:04:29;;;;;;;4.70;2.13;;;17.60;31.00;;;;;;4983682;28;20583;-73
2023/03/18 11:07:19;;;;;;;4.70;2.00;;;17.90;31.90;;;;;;4979934;28;20565;-74
2023/03/18 11:10:14;;;;;;;5.27;1.60;;;18.10;32.10;;;;;;4971327;28;20429;-73
2023/03/18 11:13:01;;;;;;;6.37;2.30;;;18.30;28.00;;;;;;4983100;28;20460;-73
2023/03/18 11:15:50;;;;;;;3.70;1.60;;;18.40;27.40;;;;;;4987914;28;20500;-72
2023/03/18 11:18:37;;;;;;;6.20;1.90;;;18.40;28.30;;;;;;4986769;28;20578;-73
2023/03/18 11:21:24;;;;;;;5.73;2.23;;;18.50;28.90;;;;;;4980541;28;20596;-72
2023/03/18 11:24:34;;;;;;;5.17;2.20;;;18.50;28.10;;;;;;4980294;28;20979;-73
2023/03/18 11:27:38;;;;;;;7.20;3.17;;;18.60;26.80;;;;;;4992492;28;20498;-72
2023/03/18 11:30:26;;;;;;;5.43;2.10;;;18.80;28.10;;;;;;4975742;28;21679;-73
2023/03/18 11:33:14;;;;;;;6.30;2.30;;;19.10;27.80;;;;;;4978132;28;20563;-74
2023/03/18 11:36:05;;;;;;;5.27;1.70;;;19.20;27.60;;;;;;4976167;28;20427;-73
2023/03/18 11:38:57;;;;;;;14.63;1.97;;;19.40;27.40;;;;;;4977409;28;22912;-73
2023/03/18 11:41:44;;;;;;;4.50;1.80;;;19.40;26.30;;;;;;4978267;28;20448;-73
2023/03/18 11:44:32;;;;;;;6.00;2.53;;;19.50;25.80;;;;;;4977071;28;20449;-73
2023/03/18 11:47:22;;;;;;;4.87;2.00;;;19.50;26.00;;;;;;4977101;28;20476;-72
2023/03/18 11:50:18;;;;;;;5.83;1.93;;;19.50;26.00;;;;;;4979758;28;20545;-73
2023/03/18 11:53:11;;;;;;;5.57;1.67;;;19.60;26.10;;;;;;4987433;28;20439;-73
2023/03/18 11:56:01;;;;;;;4.43;1.80;;;19.60;26.70;;;;;;4975181;28;20449;-73
2023/03/18 11:59:08;;;;;;;4.67;1.80;;;19.80;27.00;;;;;;4979837;28;20614;-72
2023/03/18 12:02:04;;;;;;;4.30;1.60;;;19.70;26.20;;;;;;4988233;28;20443;-73
2023/03/18 12:05:15;;;;;;;2.50;1.50;;;19.70;26.20;;;;;;4995165;28;20480;-73
2023/03/18 12:08:13;;;;;;;5.53;2.00;;;19.70;26.50;;;;;;4996518;28;20467;-71
2023/03/18 12:11:08;;;;;;;3.90;2.33;;;19.80;26.30;;;;;;4991040;28;20569;-76
2023/03/18 12:14:01;;;;;;;3.53;1.67;;;20.00;26.40;;;;;;4984790;28;20428;-72
2023/03/18 12:16:59;;;;;;;7.77;1.57;;;20.10;26.50;;;;;;4978116;28;20652;-74
2023/03/18 12:20:33;;;;;;;6.87;2.43;;;20.20;26.10;;;;;;4993140;28;20602;-74
2023/03/18 12:23:34;;;;;;;2.60;1.40;;;20.10;24.40;;;;;;4966278;28;20496;-72
2023/03/18 12:26:26;;;;;;;4.33;2.07;;;20.00;26.40;;;;;;4985032;28;20478;-72
2023/03/18 12:29:45;;;;;;;10.47;1.80;;;20.20;26.40;;;;;;4990597;28;20436;-71
2023/03/18 12:32:37;;;;;;;3.90;2.17;;;20.20;24.60;;;;;;4977242;28;20939;-72
2023/03/18 12:35:46;;;;;;;4.97;2.00;;;20.10;26.30;;;;;;4985159;28;20457;-74
2023/03/18 12:38:54;;;;;;;7.83;2.00;;;20.20;26.60;;;;;;4991174;28;20570;-72
2023/03/18 12:41:50;;;;;;;3.87;1.83;;;20.20;25.50;;;;;;4978813;28;20492;-71
2023/03/18 12:44:58;;;;;;;4.67;2.00;;;20.20;25.50;;;;;;4974820;28;20481;-72
2023/03/18 12:47:49;;;;;;;7.03;2.20;;;20.00;24.80;;;;;;4983362;28;20475;-72
2023/03/18 12:50:38;;;;;;;4.50;2.00;;;19.80;26.20;;;;;;4986184;28;20540;-71
2023/03/18 12:53:29;;;;;;;3.67;1.57;;;19.70;26.20;;;;;;4983353;28;20449;-72
2023/03/18 12:56:20;;;;;;;5.67;1.93;;;19.70;26.20;;;;;;4980095;28;20806;-72
2023/03/18 12:59:09;;;;;;;5.20;2.10;;;19.60;26.10;;;;;;4984751;28;20826;-71
2023/03/18 13:02:17;;;;;;;6.10;2.13;;;19.50;27.00;;;;;;4978464;28;20460;-72
2023/03/18 13:05:13;;;;;;;6.60;1.63;;;19.30;25.90;;;;;;4981094;28;20485;-71
2023/03/18 13:08:35;;;;;;;3.73;1.97;;;19.20;26.50;;;;;;4984552;28;20544;-71
2023/03/18 13:11:33;;;;;;;14.43;2.40;;;19.20;27.60;;;;;;4974663;28;20454;-71
2023/03/18 13:14:27;;;;;;;6.43;2.13;;;19.20;26.70;;;;;;4978502;28;20512;-73
2023/03/18 13:17:16;;;;;;;6.13;2.57;;;19.30;26.70;;;;;;4983712;28;20942;-72
2023/03/18 13:20:11;;;;;;;6.47;2.50;;;19.10;25.90;;;;;;4982379;28;20521;-72
2023/03/18 13:23:16;;;;;;;5.40;1.97;;;19.10;25.80;;;;;;4990136;28;20558;-71
2023/03/18 13:26:12;;;;;;;4.23;2.17;;;19.00;26.70;;;;;;4993397;28;20566;-75
2023/03/18 13:29:10;;;;;;;6.03;2.00;;;19.00;27.00;;;;;;4985112;28;20449;-72
2023/03/18 13:32:07;;;;;;;7.30;2.10;;;19.10;27.10;;;;;;4976572;28;20432;-74
2023/03/18 13:35:31;;;;;;;5.00;2.00;;;19.20;27.00;;;;;;4998200;28;20790;-72
2023/03/18 13:38:41;;;;;;;8.63;2.70;;;19.30;25.80;;;;;;4981319;28;20491;-72
2023/03/18 13:41:59;;;;;;;5.97;2.37;;;19.50;27.10;;;;;;4979057;28;20637;-74
2023/03/18 13:44:49;;;;;;;4.83;2.17;;;19.70;25.30;;;;;;4975978;28;20570;-71
2023/03/18 13:47:38;;;;;;;5.63;2.10;;;19.90;25.50;;;;;;4984847;28;20880;-73
2023/03/18 13:50:33;;;;;;;4.70;2.27;;;20.10;24.70;;;;;;4985670;28;20478;-74
2023/03/18 13:53:25;;;;;;;10.43;2.70;;;20.20;24.50;;;;;;4982823;28;20423;-71
2023/03/18 13:56:28;;;;;;;10.43;2.03;;;20.50;25.40;;;;;;4982781;28;20580;-72
2023/03/18 13:59:45;;;;;;;4.50;1.90;;;21.00;25.20;;;;;;4976990;28;20465;-74
2023/03/18 14:02:44;;;;;;;8.90;2.60;;;21.30;24.10;;;;;;4981914;28;20441;-72
2023/03/18 14:05:41;;;;;;;5.13;2.23;;;21.70;22.10;;;;;;4981601;28;20413;-73
2023/03/18 14:08:46;;;;;;;4.67;2.20;;;22.00;22.70;;;;;;4941679;28;1119447;-72
2023/03/18 14:11:46;;;;;;;6.57;2.73;;;21.70;22.30;;;;;;4978185;28;20387;-73
2023/03/18 14:14:57;;;;;;;4.80;2.07;;;21.50;22.10;;;;;;4987161;28;20707;-73
2023/03/18 14:17:48;;;;;;;12.10;2.80;;;21.50;22.60;;;;;;4979044;28;20600;-73
2023/03/18 14:20:40;;;;;;;4.43;2.30;;;21.20;23.50;;;;;;4976550;28;20492;-73
2023/03/18 14:23:34;;;;;;;5.60;1.93;;;20.90;23.90;;;;;;4988933;28;20445;-73
2023/03/18 14:26:22;;;;;;;8.17;2.33;;;20.60;25.00;;;;;;4994055;28;20433;-73
2023/03/18 14:29:29;;;;;;;3.63;2.20;;;20.50;24.70;;;;;;4988827;28;20924;-73
2023/03/18 14:32:39;;;;;;;5.70;2.40;;;20.50;24.30;;;;;;4993552;28;20472;-73
2023/03/18 14:35:27;;;;;;;3.47;1.73;;;20.30;23.80;;;;;;4997430;28;20789;-74
2023/03/18 14:38:20;;;;;;;5.10;2.03;;;20.30;24.40;;;;;;4994845;28;20431;-72
2023/03/18 14:41:17;;;;;;;8.03;2.43;;;20.50;24.50;;;;;;4984651;28;20973;-73